This is the latest recevied weather packets stored in our database for station/object K9APR. If no packets are shown the sender has not sent any weather packets the latest 10 day(s).
| Time | Temp. | Humidity | Pressure | Rain* | Wind** | Luminosity | Snow |
|---|---|---|---|---|---|---|---|
| 1777979484 | 12.78° C | 88% | 1007 hPa | 0 mm | - | - | - |
| 1777978943 | 12.78° C | 88% | 1006.6 hPa | 0 mm | - | - | - |
| 1777978400 | 12.78° C | 88% | 1007 hPa | 0.25 mm | - | - | - |
| 1777977863 | 12.78° C | 88% | 1006.6 hPa | 0.25 mm | - | - | - |
| 1777977323 | 12.78° C | 88% | 1006.3 hPa | 0.25 mm | - | - | - |
| 1777977108 | 12.78° C | 88% | 1005.6 hPa | 0.25 mm | - | - | - |
| 1777976780 | 12.78° C | 88% | 1005.6 hPa | 0.25 mm | - | - | - |
| 1777975738 | 12.78° C | 90% | 1005.4 hPa | 0.51 mm | - | - | - |
| 1777975701 | 12.78° C | 90% | 1005.4 hPa | 0.51 mm | - | - | - |
| 1777975164 | 12.78° C | 90% | 1005.7 hPa | 0.51 mm | - | - | - |
| 1777974621 | 12.78° C | 90% | 1005.2 hPa | 0.25 mm | - | - | - |
| 1777974082 | 12.78° C | 90% | 1006.1 hPa | 0.51 mm | - | - | - |
| 1777973543 | 12.78° C | 90% | 1006.4 hPa | 1.02 mm | - | - | - |
| 1777971381 | 12.78° C | 90% | 1007.9 hPa | 4.83 mm | - | - | - |
| 1777970842 | 12.78° C | 90% | 1008.1 hPa | 5.33 mm | - | - | - |
| 1777970301 | 12.78° C | 90% | 1008.2 hPa | 5.59 mm | - | - | - |
| 1777969761 | 12.78° C | 90% | 1008.1 hPa | 6.1 mm | - | - | - |
| 1777969221 | 12.78° C | 90% | 1007.9 hPa | 5.33 mm | - | - | - |
| 1777968681 | 12.78° C | 90% | 1007.4 hPa | 4.83 mm | - | - | - |
| 1777968141 | 12.78° C | 89% | 1007.3 hPa | 4.32 mm | - | - | - |
| 1777967601 | 12.78° C | 89% | 1007.4 hPa | 3.56 mm | - | - | - |
| 1777967061 | 12.78° C | 89% | 1007.4 hPa | 3.56 mm | - | - | - |
| 1777966521 | 12.78° C | 88% | 1007 hPa | 3.56 mm | - | - | - |
| 1777965980 | 12.78° C | 88% | 1006.8 hPa | 2.79 mm | - | - | - |
| 1777965442 | 13.33° C | 87% | 1007.5 hPa | 2.03 mm | - | - | - |
* Rain latest hour (hover to see other rain measurements)
** Current wind speed in m/s (hover to see current wind gust speed)